createdAt,value
2024-05-09T00:00:45.530Z,60.65
2024-05-09T00:03:35.713Z,60.67
2024-05-09T00:06:07.379Z,60.67
2024-05-09T00:08:35.831Z,60.69
2024-05-09T00:11:03.532Z,60.66
2024-05-09T00:13:31.998Z,60.75
2024-05-09T00:15:59.385Z,60.88
2024-05-09T00:18:30.244Z,60.96
2024-05-09T00:20:57.540Z,61.13
2024-05-09T00:23:24.836Z,61.17
2024-05-09T00:25:53.292Z,61.24
2024-05-09T00:28:20.956Z,61.12
2024-05-09T00:30:48.399Z,61.26
2024-05-09T00:33:15.547Z,61.28
2024-05-09T00:35:43.037Z,61.22
2024-05-09T00:38:11.901Z,61.23
2024-05-09T00:40:42.681Z,61.20
2024-05-09T00:43:12.198Z,61.26
2024-05-09T00:45:41.207Z,61.30
2024-05-09T00:48:17.198Z,61.35
2024-05-09T00:50:47.525Z,61.27
2024-05-09T00:53:16.778Z,61.26
2024-05-09T00:55:44.466Z,61.31
2024-05-09T00:58:17.594Z,61.38
2024-05-09T01:08:29.945Z,61.50
2024-05-09T01:10:57.611Z,61.48
2024-05-09T01:13:24.729Z,61.52
2024-05-09T01:15:53.481Z,61.59
2024-05-09T01:18:21.429Z,61.66
2024-05-09T01:20:49.081Z,61.68
2024-05-09T01:23:18.305Z,61.77
2024-05-09T01:25:46.134Z,61.84
2024-05-09T01:28:14.498Z,61.94
2024-05-09T01:30:42.016Z,62.05
2024-05-09T01:33:11.312Z,62.11
2024-05-09T01:35:40.188Z,62.16
2024-05-09T01:38:09.978Z,62.30
2024-05-09T01:40:39.816Z,62.39
2024-05-09T01:43:10.557Z,62.35
2024-05-09T01:45:39.859Z,62.39
2024-05-09T01:48:08.229Z,62.23
2024-05-09T01:50:39.810Z,62.08
2024-05-09T01:53:10.798Z,62.19
2024-05-09T01:55:38.578Z,62.19
2024-05-09T01:58:06.631Z,62.17
2024-05-09T02:00:39.857Z,62.12
2024-05-09T02:03:12.439Z,62.23
2024-05-09T02:05:43.232Z,62.28
2024-05-09T02:08:15.902Z,62.29
2024-05-09T02:10:46.373Z,62.23
2024-05-09T02:13:17.583Z,62.35
2024-05-09T02:15:44.740Z,62.35
2024-05-09T02:18:12.193Z,62.35
2024-05-09T02:20:43.222Z,62.29
2024-05-09T02:23:13.693Z,62.36
2024-05-09T02:25:41.581Z,62.46
2024-05-09T02:28:09.150Z,62.54
2024-05-09T02:30:40.562Z,62.64
2024-05-09T02:33:11.559Z,62.63
2024-05-09T02:35:40.879Z,62.60
2024-05-09T02:38:16.287Z,62.71
2024-05-09T02:40:43.427Z,62.75
2024-05-09T02:43:12.750Z,62.65
2024-05-09T02:45:40.601Z,62.57
2024-05-09T02:48:12.689Z,62.65
2024-05-09T02:50:43.778Z,62.56
2024-05-09T02:53:11.829Z,62.62
2024-05-09T02:55:41.914Z,62.61
2024-05-09T02:58:10.476Z,62.45
2024-05-09T03:00:41.251Z,62.36
2024-05-09T03:03:12.909Z,62.27
2024-05-09T03:05:45.628Z,62.30
2024-05-09T03:08:13.326Z,62.17
2024-05-09T03:10:41.017Z,62.03
2024-05-09T03:13:15.588Z,61.79
2024-05-09T03:15:44.593Z,61.81
2024-05-09T03:18:12.730Z,61.72
2024-05-09T03:20:41.005Z,61.69
2024-05-09T03:23:09.607Z,61.49
2024-05-09T03:25:38.586Z,61.43
2024-05-09T03:28:06.363Z,61.13
2024-05-09T03:30:40.861Z,61.00
2024-05-09T03:33:17.950Z,61.02
2024-05-09T03:35:48.355Z,60.71
2024-05-09T03:38:16.486Z,60.45
2024-05-09T03:40:48.783Z,60.10
2024-05-09T03:43:17.828Z,59.92
2024-05-09T03:45:47.340Z,59.62
2024-05-09T03:48:16.368Z,59.55
2024-05-09T03:50:43.699Z,59.33
2024-05-09T03:53:13.281Z,59.10
2024-05-09T03:55:40.876Z,58.88
2024-05-09T03:58:12.260Z,59.06
2024-05-09T04:00:40.377Z,59.07
2024-05-09T04:03:10.167Z,58.99
2024-05-09T04:05:41.770Z,58.73
2024-05-09T04:08:10.853Z,58.46
2024-05-09T04:10:38.139Z,58.07
2024-05-09T04:13:07.478Z,58.16
2024-05-09T04:15:35.979Z,58.15
2024-05-09T04:18:04.344Z,57.95
2024-05-09T04:20:38.194Z,57.86
2024-05-09T04:23:11.387Z,57.81
2024-05-09T04:25:43.561Z,57.90
2024-05-09T04:28:10.632Z,57.77
2024-05-09T04:30:40.537Z,57.81
2024-05-09T04:33:11.901Z,57.86
2024-05-09T04:35:42.288Z,57.60
2024-05-09T04:38:12.514Z,57.63
2024-05-09T04:40:41.884Z,57.57
2024-05-09T04:43:19.072Z,57.33
2024-05-09T04:45:46.162Z,56.72
2024-05-09T04:48:18.641Z,56.82
2024-05-09T04:50:46.200Z,56.81
2024-05-09T04:53:16.763Z,56.76
2024-05-09T04:55:44.200Z,56.63
2024-05-09T04:58:11.747Z,56.54
2024-05-09T05:00:40.400Z,56.43
2024-05-09T05:03:12.341Z,56.33
2024-05-09T05:05:46.111Z,56.27
2024-05-09T05:08:15.471Z,56.03
2024-05-09T05:10:43.947Z,56.00
2024-05-09T05:13:25.325Z,55.31
2024-05-09T05:15:57.116Z,54.89
2024-05-09T05:18:27.525Z,54.92
2024-05-09T05:20:55.814Z,54.65
2024-05-09T05:23:26.406Z,54.69
2024-05-09T05:25:54.835Z,54.62
2024-05-09T05:28:22.757Z,54.33
2024-05-09T05:30:52.602Z,53.88
2024-05-09T05:33:21.407Z,54.06
2024-05-09T05:35:48.414Z,54.14
2024-05-09T05:38:16.115Z,53.90
2024-05-09T05:40:46.054Z,53.30
2024-05-09T05:43:19.852Z,53.39
2024-05-09T05:45:46.949Z,53.35
2024-05-09T05:48:17.816Z,53.03
2024-05-09T05:50:45.668Z,52.94
2024-05-09T05:53:13.508Z,52.84
2024-05-09T05:55:42.095Z,52.99
2024-05-09T05:58:12.295Z,53.13
2024-05-09T06:00:41.477Z,53.15
2024-05-09T06:03:11.555Z,52.98
2024-05-09T06:05:39.182Z,52.96
2024-05-09T06:08:06.960Z,52.85
2024-05-09T06:10:45.141Z,52.76
2024-05-09T06:13:13.515Z,52.54
2024-05-09T06:15:41.630Z,52.44
2024-05-09T06:18:11.961Z,52.73
2024-05-09T06:20:41.060Z,52.46
2024-05-09T06:23:09.596Z,52.39
2024-05-09T06:25:38.203Z,52.67
2024-05-09T06:28:06.518Z,52.65
2024-05-09T06:30:52.026Z,52.75
2024-05-09T06:33:20.388Z,52.81
2024-05-09T06:35:50.502Z,52.79
2024-05-09T06:38:18.256Z,53.10
2024-05-09T06:40:45.801Z,53.04
2024-05-09T06:43:13.663Z,52.93
2024-05-09T06:45:41.224Z,53.06
2024-05-09T06:48:09.247Z,52.93
2024-05-09T06:50:39.164Z,53.06
2024-05-09T06:53:08.949Z,53.21
2024-05-09T06:55:36.862Z,53.21
2024-05-09T06:58:06.660Z,52.94
2024-05-09T07:00:39.501Z,52.92
2024-05-09T07:03:10.112Z,52.71
2024-05-09T07:05:39.980Z,52.87
2024-05-09T07:08:07.963Z,52.84
2024-05-09T07:10:38.792Z,52.31
2024-05-09T07:13:11.633Z,52.28
2024-05-09T07:15:39.767Z,52.35
2024-05-09T07:18:18.419Z,52.30
2024-05-09T07:20:48.184Z,52.27
2024-05-09T07:23:16.240Z,52.44
2024-05-09T07:25:43.728Z,52.65
2024-05-09T07:28:16.053Z,52.63
2024-05-09T07:30:46.294Z,52.51
2024-05-09T07:33:22.162Z,52.69
2024-05-09T07:35:53.085Z,52.68
2024-05-09T07:38:20.820Z,52.62
2024-05-09T07:40:48.772Z,52.43
2024-05-09T07:43:19.188Z,52.33
2024-05-09T07:45:53.039Z,52.18
2024-05-09T07:50:00.446Z,52.26
2024-05-09T07:53:49.080Z,52.19
2024-05-09T07:56:22.365Z,52.23
2024-05-09T07:58:53.189Z,52.05
2024-05-09T08:01:21.071Z,52.55
2024-05-09T08:03:50.329Z,53.02
2024-05-09T08:06:17.978Z,53.37
2024-05-09T08:08:47.075Z,53.37
2024-05-09T08:11:14.037Z,53.12
2024-05-09T08:13:41.085Z,53.36
2024-05-09T08:16:11.281Z,53.36
2024-05-09T08:18:39.099Z,53.42
2024-05-09T08:21:07.673Z,53.05
2024-05-09T08:23:35.808Z,52.83
2024-05-09T08:26:03.474Z,52.72
2024-05-09T08:28:30.741Z,52.42
2024-05-09T08:31:00.036Z,51.39
2024-05-09T08:33:33.889Z,51.92
2024-05-09T08:36:01.595Z,52.26
2024-05-09T08:38:28.550Z,52.08
2024-05-09T08:40:55.857Z,52.13
2024-05-09T08:43:26.174Z,51.62
2024-05-09T08:45:53.189Z,51.48
2024-05-09T08:48:23.713Z,51.22
2024-05-09T08:50:53.895Z,51.11
2024-05-09T08:53:23.330Z,50.97
2024-05-09T08:55:51.388Z,51.05
2024-05-09T08:58:19.137Z,51.37
2024-05-09T09:00:47.465Z,51.79
2024-05-09T09:03:18.311Z,52.15
2024-05-09T09:06:10.403Z,52.71
2024-05-09T09:08:38.901Z,53.16
2024-05-09T09:11:05.946Z,52.99
2024-05-09T09:13:33.811Z,53.17
2024-05-09T09:16:02.219Z,52.80
2024-05-09T09:18:32.479Z,52.89
2024-05-09T09:21:02.799Z,52.84
2024-05-09T09:23:31.256Z,53.01
2024-05-09T09:25:59.708Z,53.02
2024-05-09T09:28:29.305Z,53.28
2024-05-09T09:31:05.010Z,53.48
2024-05-09T09:33:34.877Z,53.55
2024-05-09T09:36:03.098Z,53.65
2024-05-09T09:38:31.879Z,53.74
2024-05-09T09:41:01.316Z,53.79
2024-05-09T09:43:31.911Z,53.95
2024-05-09T09:46:02.179Z,54.11
2024-05-09T09:48:30.967Z,54.22
2024-05-09T09:51:02.516Z,53.93
2024-05-09T09:53:33.023Z,53.49
2024-05-09T09:56:01.532Z,53.51
2024-05-09T09:58:32.745Z,53.05
2024-05-09T10:01:00.272Z,53.04
2024-05-09T10:03:28.049Z,53.22
2024-05-09T10:05:58.066Z,53.49
2024-05-09T10:08:27.652Z,53.44
2024-05-09T10:10:54.843Z,53.59
2024-05-09T10:13:34.010Z,53.55
2024-05-09T10:16:08.732Z,53.48
2024-05-09T10:18:37.831Z,53.79
2024-05-09T10:21:23.458Z,53.87
2024-05-09T10:24:02.591Z,54.04
2024-05-09T10:26:37.049Z,54.42
2024-05-09T10:29:15.982Z,54.50
2024-05-09T10:31:47.458Z,54.38
2024-05-09T10:34:24.240Z,54.50
2024-05-09T10:36:53.906Z,54.27
2024-05-09T10:39:21.731Z,54.19
2024-05-09T10:41:49.873Z,54.19
2024-05-09T10:44:18.148Z,54.34
2024-05-09T10:46:45.659Z,54.51
2024-05-09T10:49:14.495Z,54.35
2024-05-09T10:51:50.481Z,54.42
2024-05-09T10:54:17.805Z,54.52
2024-05-09T10:56:46.298Z,54.68
2024-05-09T10:59:13.440Z,54.35
2024-05-09T11:01:42.173Z,54.38
2024-05-09T11:04:09.934Z,54.51
2024-05-09T11:06:37.966Z,54.45
2024-05-09T11:09:05.879Z,54.40
2024-05-09T11:11:33.160Z,54.22
2024-05-09T11:14:11.222Z,53.85
2024-05-09T11:16:38.858Z,53.62
2024-05-09T11:19:14.547Z,53.63
2024-05-09T11:21:42.647Z,53.37
2024-05-09T11:24:11.544Z,53.34
2024-05-09T11:26:41.600Z,53.34
2024-05-09T11:29:10.719Z,52.93
2024-05-09T11:31:48.517Z,52.61
2024-05-09T11:34:16.255Z,52.92
2024-05-09T11:36:45.647Z,52.62
2024-05-09T11:39:14.039Z,52.60
2024-05-09T11:41:44.392Z,52.28
2024-05-09T11:44:12.624Z,51.44
2024-05-09T11:46:41.007Z,51.19
2024-05-09T11:49:11.621Z,51.20
2024-05-09T11:51:39.496Z,51.15
2024-05-09T11:54:08.506Z,50.85
2024-05-09T11:56:35.482Z,50.69
2024-05-09T11:59:03.039Z,49.13
2024-05-09T12:01:30.487Z,48.66
2024-05-09T12:03:58.317Z,49.13
2024-05-09T12:06:25.836Z,49.13
2024-05-09T12:08:58.650Z,49.39
2024-05-09T12:11:27.925Z,49.54
2024-05-09T12:13:54.950Z,49.44
2024-05-09T12:16:22.402Z,49.78
2024-05-09T12:18:49.741Z,49.19
2024-05-09T12:21:17.123Z,48.98
2024-05-09T12:23:44.601Z,48.65
2024-05-09T12:26:12.412Z,48.36
2024-05-09T12:28:40.992Z,48.46
2024-05-09T12:31:10.118Z,48.56
2024-05-09T12:33:37.442Z,48.63
2024-05-09T12:36:04.848Z,48.35
2024-05-09T12:38:31.959Z,48.14
2024-05-09T12:40:59.258Z,47.94
2024-05-09T12:43:28.299Z,47.68
2024-05-09T12:45:55.839Z,47.89
2024-05-09T12:48:23.571Z,47.76
2024-05-09T12:50:51.088Z,47.15
2024-05-09T12:53:18.331Z,47.36
2024-05-09T12:55:53.408Z,47.51
2024-05-09T12:58:24.720Z,47.49
2024-05-09T13:00:54.361Z,47.63
2024-05-09T13:03:21.764Z,47.57
2024-05-09T13:05:50.146Z,47.83
2024-05-09T13:08:19.968Z,48.20
2024-05-09T13:10:52.190Z,48.61
2024-05-09T13:13:19.466Z,48.36
2024-05-09T13:15:46.863Z,48.36
2024-05-09T13:18:14.764Z,48.82
2024-05-09T13:20:42.053Z,49.35
2024-05-09T13:23:09.099Z,49.85
2024-05-09T13:25:38.083Z,50.20
2024-05-09T13:28:06.853Z,50.63
2024-05-09T13:30:39.729Z,50.77
2024-05-09T13:33:11.529Z,51.05
2024-05-09T13:35:47.426Z,51.14
2024-05-09T13:38:19.534Z,50.99
2024-05-09T13:40:47.758Z,50.99
2024-05-09T13:43:16.926Z,51.05
2024-05-09T13:45:44.357Z,51.11
2024-05-09T13:48:12.967Z,51.12
2024-05-09T13:50:41.619Z,51.21
2024-05-09T13:53:09.291Z,51.44
2024-05-09T13:55:40.225Z,51.78
2024-05-09T13:58:12.566Z,51.91
2024-05-09T14:00:48.628Z,52.34
2024-05-09T14:03:19.643Z,52.55
2024-05-09T14:05:50.424Z,53.06
2024-05-09T14:08:18.973Z,53.56
2024-05-09T14:10:47.073Z,53.50
2024-05-09T14:13:14.914Z,53.82
2024-05-09T14:15:44.303Z,53.96
2024-05-09T14:18:14.143Z,54.10
2024-05-09T14:20:42.606Z,54.36
2024-05-09T14:23:10.206Z,54.56
2024-05-09T14:25:41.782Z,54.65
2024-05-09T14:28:11.671Z,54.51
2024-05-09T14:30:39.746Z,54.11
2024-05-09T14:33:08.858Z,54.04
2024-05-09T14:35:37.813Z,53.98
2024-05-09T14:38:06.255Z,53.65
2024-05-09T14:43:06.683Z,53.36
2024-05-09T14:45:36.920Z,52.96
2024-05-09T14:48:04.908Z,52.77
2024-05-09T14:50:36.432Z,52.91
2024-05-09T14:53:09.100Z,53.07
2024-05-09T14:55:37.407Z,52.62
2024-05-09T14:58:06.578Z,52.52
2024-05-09T15:00:38.576Z,52.70
2024-05-09T15:03:10.401Z,52.56
2024-05-09T15:05:37.435Z,52.35
2024-05-09T15:08:08.138Z,52.92
2024-05-09T15:10:36.839Z,52.90
2024-05-09T15:13:09.652Z,52.83
2024-05-09T15:15:40.796Z,52.60
2024-05-09T15:18:08.556Z,52.45
2024-05-09T15:20:37.144Z,52.69
2024-05-09T15:23:07.660Z,52.67
2024-05-09T15:25:37.512Z,52.51
2024-05-09T15:28:09.312Z,52.71
2024-05-09T15:30:39.589Z,53.01
2024-05-09T15:33:09.646Z,53.22
2024-05-09T15:35:41.078Z,53.08
2024-05-09T15:38:09.040Z,53.00
2024-05-09T15:40:40.276Z,53.07
2024-05-09T15:43:10.301Z,53.01
2024-05-09T15:45:40.620Z,52.76
2024-05-09T15:48:10.113Z,52.57
2024-05-09T15:50:41.200Z,52.81
2024-05-09T15:53:12.376Z,53.07
2024-05-09T15:55:41.112Z,52.87
2024-05-09T15:58:11.489Z,52.60
2024-05-09T16:00:43.687Z,52.41
2024-05-09T16:03:13.863Z,52.27
2024-05-09T16:05:46.331Z,52.15
2024-05-09T16:08:15.019Z,51.94
2024-05-09T16:10:45.726Z,52.20
2024-05-09T16:13:15.115Z,52.64
2024-05-09T16:15:43.540Z,52.60
2024-05-09T16:18:14.000Z,52.57
2024-05-09T16:20:43.511Z,52.90
2024-05-09T16:23:12.210Z,53.37
2024-05-09T16:25:44.841Z,53.99
2024-05-09T16:28:12.481Z,54.16
2024-05-09T16:30:40.436Z,54.36
2024-05-09T16:33:08.769Z,54.25
2024-05-09T16:35:37.325Z,54.00
2024-05-09T16:38:09.359Z,54.15
2024-05-09T16:40:40.883Z,54.44
2024-05-09T16:43:10.537Z,54.54
2024-05-09T16:45:40.545Z,54.75
2024-05-09T16:48:08.540Z,55.01
2024-05-09T16:50:36.454Z,55.32
2024-05-09T16:53:07.576Z,55.77
2024-05-09T16:55:36.056Z,56.13
2024-05-09T16:58:04.027Z,56.48
2024-05-09T17:00:40.183Z,56.90
2024-05-09T17:03:15.869Z,57.36
2024-05-09T17:05:45.700Z,57.53
2024-05-09T17:08:14.990Z,57.83
2024-05-09T17:10:42.360Z,58.13
2024-05-09T17:13:10.325Z,58.05
2024-05-09T17:15:39.936Z,58.25
2024-05-09T17:18:07.763Z,58.51
2024-05-09T17:20:38.423Z,58.63
2024-05-09T17:23:12.359Z,58.65
2024-05-09T17:25:40.608Z,58.89
2024-05-09T17:28:08.912Z,59.42
2024-05-09T17:30:38.627Z,59.51
2024-05-09T17:33:11.726Z,59.74
2024-05-09T17:35:40.559Z,59.65
2024-05-09T17:38:08.216Z,59.64
2024-05-09T17:40:39.416Z,59.82
2024-05-09T17:43:10.968Z,60.05
2024-05-09T17:45:40.509Z,60.32
2024-05-09T17:48:10.952Z,60.54
2024-05-09T17:50:42.005Z,60.61
2024-05-09T17:53:10.076Z,60.63
2024-05-09T17:55:40.527Z,60.74
2024-05-09T17:58:09.062Z,60.53
2024-05-09T18:00:40.145Z,60.29
2024-05-09T18:03:13.836Z,60.10
2024-05-09T18:05:44.145Z,60.08
2024-05-09T18:08:12.808Z,60.12
2024-05-09T18:10:40.678Z,59.93
2024-05-09T18:13:09.370Z,59.89
2024-05-09T18:15:37.490Z,60.04
2024-05-09T18:18:05.839Z,60.20
2024-05-09T18:20:43.180Z,60.46
2024-05-09T18:23:17.914Z,60.75
2024-05-09T18:25:47.985Z,60.75
2024-05-09T18:28:16.479Z,60.86
2024-05-09T18:30:44.333Z,60.85
2024-05-09T18:33:12.227Z,60.91
2024-05-09T18:35:43.307Z,60.76
2024-05-09T18:38:10.741Z,60.68
2024-05-09T18:40:42.701Z,60.59
2024-05-09T18:43:13.354Z,60.40
2024-05-09T18:45:40.891Z,60.39
2024-05-09T18:48:09.706Z,60.28
2024-05-09T18:50:40.150Z,60.21
2024-05-09T18:53:09.899Z,60.25
2024-05-09T18:55:40.129Z,60.26
2024-05-09T18:58:27.835Z,60.31
2024-05-09T19:00:57.129Z,60.47
2024-05-09T19:03:25.641Z,60.52
2024-05-09T19:05:58.362Z,60.45
2024-05-09T19:08:25.879Z,60.27
2024-05-09T19:10:56.617Z,60.23
2024-05-09T19:13:27.186Z,60.13
2024-05-09T19:15:55.720Z,59.77
2024-05-09T19:18:23.256Z,59.58
2024-05-09T19:20:50.393Z,59.44
2024-05-09T19:23:17.792Z,59.47
2024-05-09T19:25:45.868Z,59.45
2024-05-09T19:28:14.668Z,59.34
2024-05-09T19:30:43.741Z,59.31
2024-05-09T19:33:13.184Z,59.17
2024-05-09T19:35:42.899Z,59.04
2024-05-09T19:38:11.410Z,59.07
2024-05-09T19:40:39.509Z,59.34
2024-05-09T19:43:07.063Z,59.32
2024-05-09T19:45:36.469Z,59.34
2024-05-09T19:48:06.161Z,59.37
2024-05-09T19:50:41.227Z,59.37
2024-05-09T19:53:12.871Z,59.50
2024-05-09T19:55:42.735Z,59.61
2024-05-09T19:58:10.715Z,59.79
2024-05-09T20:00:41.074Z,59.86
2024-05-09T20:03:12.544Z,59.93
2024-05-09T20:05:43.550Z,59.98
2024-05-09T20:08:13.857Z,59.76
2024-05-09T20:10:41.114Z,59.63
2024-05-09T20:13:08.787Z,59.53
2024-05-09T20:15:38.233Z,59.71
2024-05-09T20:18:06.178Z,59.87
2024-05-09T20:20:39.105Z,60.23
2024-05-09T20:23:11.715Z,60.25
2024-05-09T20:25:39.669Z,60.25
2024-05-09T20:28:07.017Z,60.19
2024-05-09T20:30:37.133Z,60.15
2024-05-09T20:33:09.242Z,59.94
2024-05-09T20:35:37.464Z,60.07
2024-05-09T20:38:05.211Z,59.94
2024-05-09T20:40:38.847Z,59.78
2024-05-09T20:43:11.154Z,59.56
2024-05-09T20:45:39.632Z,59.37
2024-05-09T20:50:40.395Z,59.16
2024-05-09T20:53:15.303Z,59.15
2024-05-09T20:55:44.207Z,59.12
2024-05-09T20:58:12.269Z,59.30
2024-05-09T21:00:43.812Z,59.28
2024-05-09T21:03:16.564Z,59.32
2024-05-09T21:05:45.376Z,59.22
2024-05-09T21:08:12.705Z,59.19
2024-05-09T21:10:39.994Z,59.04
2024-05-09T21:13:07.540Z,59.01
2024-05-09T21:15:34.684Z,58.93
2024-05-09T21:18:02.122Z,58.76
2024-05-09T21:20:32.262Z,58.72
2024-05-09T21:23:01.347Z,58.67
2024-05-09T21:25:28.945Z,58.63
2024-05-09T21:27:58.216Z,58.55
2024-05-09T21:30:33.140Z,58.16
2024-05-09T21:33:10.071Z,57.77
2024-05-09T21:35:41.053Z,57.40
2024-05-09T21:38:08.434Z,57.16
2024-05-09T21:40:38.591Z,56.90
2024-05-09T21:43:07.271Z,56.45
2024-05-09T21:45:35.893Z,56.22
2024-05-09T21:48:04.239Z,55.97
2024-05-09T21:50:39.055Z,55.90
2024-05-09T21:53:10.497Z,55.62
2024-05-09T21:55:37.868Z,55.25
2024-05-09T21:58:07.238Z,55.01
2024-05-09T22:00:37.997Z,54.96
2024-05-09T22:03:07.266Z,54.63
2024-05-09T22:05:36.423Z,54.47
2024-05-09T22:08:05.770Z,54.24
2024-05-09T22:10:35.643Z,54.07
2024-05-09T22:13:05.924Z,53.89
2024-05-09T22:15:39.587Z,53.90
2024-05-09T22:18:11.644Z,53.80
2024-05-09T22:20:43.535Z,53.43
2024-05-09T22:23:15.237Z,53.11
2024-05-09T22:25:42.641Z,53.10
2024-05-09T22:28:10.115Z,52.95
2024-05-09T22:30:39.772Z,53.08
2024-05-09T22:33:09.692Z,52.94
2024-05-09T22:35:39.022Z,52.95
2024-05-09T22:38:06.227Z,52.92
2024-05-09T22:40:43.064Z,52.96
2024-05-09T22:43:21.602Z,52.93
2024-05-09T22:45:53.438Z,52.80
2024-05-09T22:48:20.698Z,52.61
2024-05-09T22:50:47.930Z,52.32
2024-05-09T22:53:16.328Z,52.31
2024-05-09T22:55:43.526Z,52.01
2024-05-09T22:58:10.425Z,51.11
2024-05-09T23:00:42.759Z,50.60
2024-05-09T23:03:17.958Z,49.96
2024-05-09T23:05:45.923Z,49.57
2024-05-09T23:08:15.054Z,48.98
2024-05-09T23:10:42.248Z,48.83
2024-05-09T23:13:14.052Z,48.31
2024-05-09T23:15:41.536Z,47.99
2024-05-09T23:18:09.022Z,48.08
2024-05-09T23:20:39.997Z,47.61
2024-05-09T23:23:10.450Z,47.56
2024-05-09T23:25:42.854Z,46.98
2024-05-09T23:28:13.502Z,46.64
2024-05-09T23:30:41.847Z,46.06
2024-05-09T23:33:14.587Z,45.73
2024-05-09T23:35:45.937Z,45.63
2024-05-09T23:38:13.474Z,45.59
2024-05-09T23:40:42.306Z,45.32
2024-05-09T23:43:11.504Z,45.09
2024-05-09T23:45:40.475Z,45.13
2024-05-09T23:48:13.254Z,44.78
2024-05-09T23:50:41.488Z,44.80
2024-05-09T23:53:12.970Z,44.58
2024-05-09T23:55:40.585Z,44.39
2024-05-09T23:58:09.288Z,44.50
